Weather at Caas Airport

Public forecast

Using degrees Fahrenheit for public forecast. Weather courtesy of forecast.io.

Closest aviation weather report (METAR) to Caas Airport

Closest report is Creech Air Force Base, 28.4 nm (52.7 km) NNE. Retrieved 2021/06/12 10:58 UTC (1 hour ago):

KINS 121058Z AUTO 00000KT 10SM CLR 16/M20 A2993 RMK AO2 SLP092 T01551202

Closest aviation forecast (TAF) to Caas Airport

Forecast is more than 6 hours old.

Closest forecast is Creech Air Force Base, 28.4 nm (52.7 km) NNE. Retrieved 2021/06/12 05:54 UTC (6 hours ago):

TAF TAF KINS 120452Z 1205/1311 VRB06KT 9999 SKC QNH2991INS BECMG 1218/1219 09009KT 9999 SKC QNH2987INS BECMG 1220/1221 12010G15KT 9999 SKC QNH2981INS BECMG 1300/1301 22012G20KT 9999 SKC QNH2983INS WND 120V220 BECMG 1304/1305 22009KT 9999 SKC QNH2987INS BECMG 1306/1307 VRB06KT 9999 SKC QNH2989INS TX37/1223Z TN13/1212Z LAST NO AMDS AFT 1205 NEXT 1214